Terminal Aerodrome Forecast
Issued by NWS Spokane, WA

Home | Current Version | Previous Version | Text Only | Print | Product List | Glossary On
Versions: 1 2 3 4 5 6 7 8 9 10 11 12 13 14 15 16 17 18 19 20 21
000
FTUS46 KOTX 230831 AAA
TAFLWS
TAF AMD
KLWS 230831Z 2309/2406 00000KT 1SM BCFG SCT001
      TEMPO 2309/2311 1/4SM FG VV001
     FM231100 00000KT 1SM BR BKN003
     FM231500 VRB02KT P6SM SKC
     FM232000 VRB02KT P6SM SCT200
     FM240200 12006KT P6SM BKN200=

USA.gov is the U.S. government's official web portal to all federal, state and local government web resources and services.